createdAt,value
2018-07-16T00:00:22.349Z,2.20
2018-07-16T00:02:27.375Z,2.20
2018-07-16T00:04:32.342Z,2.20
2018-07-16T00:06:37.270Z,2.30
2018-07-16T00:08:42.170Z,2.57
2018-07-16T00:10:47.217Z,1.90
2018-07-16T00:12:52.147Z,2.40
2018-07-16T00:14:57.057Z,2.07
2018-07-16T00:17:02.349Z,2.47
2018-07-16T00:19:07.313Z,2.30
2018-07-16T00:21:12.908Z,2.27
2018-07-16T00:23:17.900Z,2.10
2018-07-16T00:25:22.915Z,2.23
2018-07-16T00:27:27.836Z,2.50
2018-07-16T00:29:32.823Z,2.43
2018-07-16T00:31:37.752Z,2.20
2018-07-16T00:33:42.730Z,2.30
2018-07-16T00:35:47.724Z,2.60
2018-07-16T00:37:52.637Z,2.43
2018-07-16T00:39:57.641Z,2.50
2018-07-16T00:42:02.604Z,2.60
2018-07-16T00:44:07.574Z,2.23
2018-07-16T00:46:12.579Z,2.43
2018-07-16T00:48:17.531Z,2.53
2018-07-16T00:50:22.497Z,2.20
2018-07-16T00:52:27.504Z,2.23
2018-07-16T00:54:32.946Z,2.50
2018-07-16T00:56:37.842Z,2.60
2018-07-16T00:58:42.832Z,1.80
2018-07-16T01:00:47.823Z,2.43
2018-07-16T01:02:52.721Z,2.47
2018-07-16T01:04:57.679Z,2.37
2018-07-16T01:07:02.822Z,3.30
2018-07-16T01:09:08.369Z,2.40
2018-07-16T01:11:13.419Z,2.37
2018-07-16T01:13:18.424Z,2.57
2018-07-16T01:15:23.396Z,2.50
2018-07-16T01:17:28.367Z,2.60
2018-07-16T01:19:33.290Z,2.30
2018-07-16T01:21:38.295Z,2.47
2018-07-16T01:23:43.188Z,2.30
2018-07-16T01:25:48.144Z,2.80
2018-07-16T01:27:53.110Z,2.33
2018-07-16T01:29:58.084Z,2.60
2018-07-16T01:32:03.046Z,2.77
2018-07-16T01:34:07.586Z,2.83
2018-07-16T01:36:23.857Z,2.30
2018-07-16T01:38:39.610Z,3.10
2018-07-16T01:40:52.336Z,2.70
2018-07-16T01:42:58.144Z,2.40
2018-07-16T01:45:12.198Z,2.40
2018-07-16T01:50:14.045Z,2.60
2018-07-16T01:52:49.689Z,2.77
2018-07-16T01:55:17.666Z,2.63
2018-07-16T01:57:46.724Z,2.87
2018-07-16T02:00:16.287Z,2.27
2018-07-16T02:02:24.396Z,2.77
2018-07-16T02:04:36.140Z,2.40
2018-07-16T02:06:41.171Z,2.83
2018-07-16T02:08:47.440Z,2.47
2018-07-16T02:10:55.838Z,2.27
2018-07-16T02:13:09.377Z,2.43
2018-07-16T02:15:18.026Z,2.40
2018-07-16T02:17:22.978Z,2.50
2018-07-16T02:19:34.203Z,2.63
2018-07-16T02:21:39.241Z,2.93
2018-07-16T02:23:45.641Z,2.43
2018-07-16T02:25:52.419Z,2.77
2018-07-16T02:27:57.869Z,2.40
2018-07-16T02:30:03.454Z,3.03
2018-07-16T02:32:08.446Z,3.10
2018-07-16T02:34:13.462Z,2.60
2018-07-16T02:36:18.491Z,3.03
2018-07-16T02:38:24.524Z,3.13
2018-07-16T02:40:30.057Z,2.90
2018-07-16T02:42:35.019Z,3.27
2018-07-16T02:44:40.012Z,3.17
2018-07-16T02:46:45.088Z,2.00
2018-07-16T02:48:50.154Z,2.27
2018-07-16T02:50:55.122Z,2.10
2018-07-16T02:53:00.260Z,2.07
2018-07-16T02:55:05.720Z,2.33
2018-07-16T02:57:10.610Z,2.00
2018-07-16T02:59:15.568Z,2.07
2018-07-16T03:01:20.497Z,2.30
2018-07-16T03:03:25.486Z,2.43
2018-07-16T03:05:30.442Z,2.80
2018-07-16T03:07:35.389Z,2.63
2018-07-16T03:09:40.367Z,2.67
2018-07-16T03:11:45.313Z,2.30
2018-07-16T03:13:50.371Z,2.53
2018-07-16T03:15:55.339Z,2.10
2018-07-16T03:18:00.268Z,2.27
2018-07-16T03:20:05.448Z,2.00
2018-07-16T03:22:10.369Z,2.10
2018-07-16T03:24:15.301Z,2.90
2018-07-16T03:26:20.577Z,2.50
2018-07-16T03:28:25.491Z,2.60
2018-07-16T03:30:30.457Z,2.20
2018-07-16T03:32:35.506Z,2.30
2018-07-16T03:34:40.551Z,2.50
2018-07-16T03:36:45.470Z,2.70
2018-07-16T03:38:50.462Z,2.63
2018-07-16T03:40:55.336Z,2.80
2018-07-16T03:43:00.317Z,3.00
2018-07-16T03:45:05.824Z,3.17
2018-07-16T03:47:11.019Z,2.70
2018-07-16T03:49:15.927Z,2.60
2018-07-16T03:51:20.962Z,1.60
2018-07-16T03:53:26.318Z,1.80
2018-07-16T03:55:31.467Z,2.20
2018-07-16T03:57:36.392Z,2.07
2018-07-16T03:59:41.390Z,2.50
2018-07-16T04:01:46.375Z,2.53
2018-07-16T04:03:51.285Z,2.40
2018-07-16T04:05:56.265Z,2.80
2018-07-16T04:08:01.285Z,3.07
2018-07-16T04:10:06.358Z,3.00
2018-07-16T04:12:11.326Z,2.80
2018-07-16T04:14:16.317Z,2.90
2018-07-16T04:16:21.283Z,2.80
2018-07-16T04:18:26.244Z,2.77
2018-07-16T04:20:31.283Z,2.50
2018-07-16T04:22:36.235Z,3.00
2018-07-16T04:24:41.208Z,2.80
2018-07-16T04:26:46.270Z,2.83
2018-07-16T04:28:51.249Z,2.70
2018-07-16T04:30:56.269Z,2.50
2018-07-16T04:33:01.406Z,2.53
2018-07-16T04:35:06.276Z,2.75
2018-07-16T04:37:11.104Z,3.13
2018-07-16T04:39:16.082Z,3.37
2018-07-16T04:41:20.979Z,3.30
2018-07-16T04:43:25.967Z,3.30
2018-07-16T04:45:30.977Z,3.03
2018-07-16T04:47:35.920Z,3.57
2018-07-16T04:49:40.366Z,3.30
2018-07-16T04:51:45.352Z,3.50
2018-07-16T04:53:50.278Z,3.30
2018-07-16T04:55:55.236Z,3.57
2018-07-16T04:58:00.840Z,3.87
2018-07-16T05:00:06.070Z,5.13
2018-07-16T05:02:11.180Z,4.73
2018-07-16T05:04:16.823Z,4.73
2018-07-16T05:06:21.966Z,5.00
2018-07-16T05:08:27.422Z,4.50
2018-07-16T05:10:32.663Z,4.20
2018-07-16T05:12:37.706Z,4.70
2018-07-16T05:14:42.708Z,4.67
2018-07-16T05:16:47.726Z,4.60
2018-07-16T05:18:52.699Z,5.07
2018-07-16T05:20:57.672Z,4.37
2018-07-16T05:23:02.733Z,4.97
2018-07-16T05:25:07.807Z,4.80
2018-07-16T05:27:12.771Z,5.40
2018-07-16T05:29:17.764Z,4.83
2018-07-16T05:31:22.818Z,5.20
2018-07-16T05:33:27.767Z,6.33
2018-07-16T05:35:32.711Z,6.80
2018-07-16T05:37:37.781Z,4.93
2018-07-16T05:39:42.706Z,5.70
2018-07-16T05:41:47.618Z,5.60
2018-07-16T05:43:52.510Z,5.80
2018-07-16T05:45:57.415Z,5.80
2018-07-16T05:48:02.413Z,5.30
2018-07-16T05:50:07.454Z,5.50
2018-07-16T05:52:12.381Z,6.30
2018-07-16T05:54:17.327Z,4.93
2018-07-16T05:56:22.206Z,5.30
2018-07-16T05:58:27.285Z,7.37
2018-07-16T06:00:32.270Z,4.73
2018-07-16T06:02:37.254Z,5.10
2018-07-16T06:04:42.257Z,7.17
2018-07-16T06:06:47.178Z,6.83
2018-07-16T06:08:52.201Z,7.43
2018-07-16T06:10:57.132Z,5.80
2018-07-16T06:13:02.097Z,7.20
2018-07-16T06:15:07.147Z,7.17
2018-07-16T06:17:12.024Z,7.63
2018-07-16T06:19:16.955Z,6.90
2018-07-16T06:21:21.903Z,6.50
2018-07-16T06:23:26.396Z,7.87
2018-07-16T06:25:31.301Z,2.67
2018-07-16T06:27:36.238Z,3.53
2018-07-16T06:29:41.319Z,7.20
2018-07-16T06:31:46.371Z,5.87
2018-07-16T06:33:51.339Z,5.63
2018-07-16T06:35:56.345Z,3.30
2018-07-16T06:38:01.232Z,4.20
2018-07-16T06:40:06.675Z,4.58
2018-07-16T06:42:11.571Z,2.80
2018-07-16T06:44:16.474Z,5.30
2018-07-16T06:46:21.425Z,2.33
2018-07-16T06:48:26.460Z,4.67
2018-07-16T06:50:31.487Z,3.40
2018-07-16T06:52:37.134Z,6.63
2018-07-16T06:54:42.026Z,6.43
2018-07-16T06:56:46.970Z,2.80
2018-07-16T06:58:51.921Z,6.50
2018-07-16T07:00:56.385Z,7.33
2018-07-16T07:03:01.203Z,7.73
2018-07-16T07:05:06.630Z,4.03
2018-07-16T07:07:11.499Z,4.57
2018-07-16T07:09:16.466Z,2.37
2018-07-16T07:11:21.394Z,6.40
2018-07-16T07:13:26.305Z,6.60
2018-07-16T07:15:31.295Z,3.70
2018-07-16T07:17:36.223Z,2.43
2018-07-16T07:19:41.143Z,5.80
2018-07-16T07:21:46.051Z,5.37
2018-07-16T07:23:50.915Z,6.07
2018-07-16T07:25:55.879Z,3.30
2018-07-16T07:28:00.810Z,3.63
2018-07-16T07:30:06.758Z,4.93
2018-07-16T07:32:11.802Z,3.40
2018-07-16T07:34:16.719Z,3.23
2018-07-16T07:36:21.752Z,4.97
2018-07-16T07:38:26.619Z,3.90
2018-07-16T07:40:31.643Z,5.00
2018-07-16T07:42:36.672Z,3.83
2018-07-16T07:44:41.591Z,3.63
2018-07-16T07:46:46.557Z,4.73
2018-07-16T07:48:51.567Z,3.63
2018-07-16T07:50:56.458Z,3.20
2018-07-16T07:53:01.376Z,2.80
2018-07-16T07:55:07.063Z,3.60
2018-07-16T07:57:11.599Z,3.67
2018-07-16T07:59:16.526Z,3.93
2018-07-16T08:01:21.586Z,4.23
2018-07-16T08:03:26.516Z,3.27
2018-07-16T08:05:31.497Z,3.13
2018-07-16T08:07:36.519Z,3.80
2018-07-16T08:09:43.149Z,3.20
2018-07-16T08:11:48.217Z,4.27
2018-07-16T08:13:53.266Z,4.00
2018-07-16T08:15:58.195Z,2.40
2018-07-16T08:18:03.136Z,3.83
2018-07-16T08:20:08.504Z,3.37
2018-07-16T08:22:13.566Z,3.43
2018-07-16T08:24:18.566Z,3.40
2018-07-16T08:26:23.651Z,2.70
2018-07-16T08:28:28.523Z,2.73
2018-07-16T08:30:33.595Z,3.30
2018-07-16T08:32:38.669Z,3.70
2018-07-16T08:34:43.662Z,3.87
2018-07-16T08:36:48.575Z,3.77
2018-07-16T08:38:53.558Z,3.53
2018-07-16T08:40:58.507Z,3.50
2018-07-16T08:43:03.579Z,3.23
2018-07-16T08:45:08.535Z,3.93
2018-07-16T08:47:13.800Z,2.27
2018-07-16T08:49:18.778Z,3.97
2018-07-16T08:51:23.659Z,3.70
2018-07-16T08:53:33.608Z,3.37
2018-07-16T08:55:38.873Z,3.90
2018-07-16T08:57:43.833Z,2.63
2018-07-16T08:59:48.766Z,4.00
2018-07-16T09:01:53.752Z,4.20
2018-07-16T09:03:58.807Z,3.37
2018-07-16T09:06:03.724Z,2.77
2018-07-16T09:08:08.617Z,3.50
2018-07-16T09:10:14.843Z,3.67
2018-07-16T09:12:19.719Z,4.00
2018-07-16T09:14:24.726Z,3.93
2018-07-16T09:16:29.650Z,3.67
2018-07-16T09:18:34.590Z,4.13
2018-07-16T09:20:39.566Z,3.30
2018-07-16T09:22:44.517Z,3.10
2018-07-16T09:24:49.578Z,3.93
2018-07-16T09:26:54.590Z,4.20
2018-07-16T09:28:59.597Z,3.80
2018-07-16T09:31:04.610Z,4.03
2018-07-16T09:33:09.576Z,2.73
2018-07-16T09:35:14.519Z,3.10
2018-07-16T09:37:19.454Z,4.20
2018-07-16T09:39:24.350Z,3.67
2018-07-16T09:41:29.352Z,3.87
2018-07-16T09:43:34.373Z,3.77
2018-07-16T09:45:39.295Z,3.73
2018-07-16T09:47:44.494Z,3.60
2018-07-16T09:49:49.403Z,3.33
2018-07-16T09:51:54.315Z,3.10
2018-07-16T09:53:59.295Z,3.33
2018-07-16T09:56:03.700Z,3.23
2018-07-16T09:58:08.494Z,3.73
2018-07-16T10:00:13.485Z,3.20
2018-07-16T10:02:18.541Z,3.57
2018-07-16T10:04:23.428Z,3.50
2018-07-16T10:06:28.350Z,3.30
2018-07-16T10:08:33.326Z,3.30
2018-07-16T10:10:38.220Z,3.53
2018-07-16T10:12:43.170Z,3.60
2018-07-16T10:14:48.138Z,3.23
2018-07-16T10:16:53.111Z,3.03
2018-07-16T10:18:58.009Z,2.87
2018-07-16T10:21:03.012Z,2.80
2018-07-16T10:23:07.963Z,3.50
2018-07-16T10:25:12.959Z,3.03
2018-07-16T10:27:17.907Z,2.73
2018-07-16T10:29:22.778Z,3.20
2018-07-16T10:31:27.692Z,3.53
2018-07-16T10:33:32.652Z,2.87
2018-07-16T10:35:37.634Z,3.10
2018-07-16T10:37:42.574Z,2.83
2018-07-16T10:39:47.662Z,3.50
2018-07-16T10:41:55.187Z,3.37
2018-07-16T10:44:00.139Z,3.00
2018-07-16T10:46:05.134Z,3.07
2018-07-16T10:48:10.069Z,2.70
2018-07-16T10:50:14.995Z,3.70
2018-07-16T10:52:19.962Z,2.67
2018-07-16T10:54:24.888Z,3.10
2018-07-16T10:56:30.348Z,3.53
2018-07-16T10:58:35.262Z,3.27
2018-07-16T11:00:40.270Z,3.47
2018-07-16T11:02:45.160Z,3.37
2018-07-16T11:04:50.371Z,2.90
2018-07-16T11:06:55.317Z,2.57
2018-07-16T11:09:00.571Z,3.03
2018-07-16T11:11:05.789Z,3.20
2018-07-16T11:13:10.786Z,3.40
2018-07-16T11:15:15.631Z,3.30
2018-07-16T11:17:20.571Z,3.00
2018-07-16T11:19:25.528Z,3.30
2018-07-16T11:21:30.475Z,2.67
2018-07-16T11:23:35.448Z,3.00
2018-07-16T11:25:40.609Z,2.80
2018-07-16T11:27:45.584Z,2.93
2018-07-16T11:29:50.556Z,2.80
2018-07-16T11:31:55.498Z,2.53
2018-07-16T11:34:00.449Z,2.90
2018-07-16T11:36:05.501Z,2.90
2018-07-16T11:38:10.450Z,3.20
2018-07-16T11:40:15.403Z,3.00
2018-07-16T11:42:20.323Z,2.50
2018-07-16T11:44:25.247Z,3.10
2018-07-16T11:46:30.204Z,3.30
2018-07-16T11:48:35.192Z,3.30
2018-07-16T11:50:40.067Z,2.77
2018-07-16T11:52:45.011Z,3.07
2018-07-16T11:54:50.025Z,3.00
2018-07-16T11:56:55.193Z,2.83
2018-07-16T11:59:00.146Z,2.50
2018-07-16T12:01:05.117Z,2.60
2018-07-16T12:03:09.978Z,2.77
2018-07-16T12:05:15.165Z,2.63
2018-07-16T12:07:20.144Z,2.70
2018-07-16T12:09:25.142Z,2.80
2018-07-16T12:11:30.093Z,2.43
2018-07-16T12:13:35.036Z,3.23
2018-07-16T12:15:43.323Z,2.53
2018-07-16T12:17:48.298Z,2.40
2018-07-16T12:19:53.995Z,2.53
2018-07-16T12:22:01.077Z,2.50
2018-07-16T12:24:10.761Z,2.57
2018-07-16T12:26:25.306Z,2.30
2018-07-16T12:28:30.565Z,2.90
2018-07-16T12:30:36.254Z,2.30
2018-07-16T12:32:43.335Z,2.70
2018-07-16T12:34:48.229Z,2.37
2018-07-16T12:36:56.252Z,2.20
2018-07-16T12:39:04.898Z,2.47
2018-07-16T12:41:09.829Z,2.30
2018-07-16T12:43:14.809Z,2.10
2018-07-16T12:45:20.495Z,2.07
2018-07-16T12:47:25.419Z,1.80
2018-07-16T12:49:41.026Z,2.13
2018-07-16T12:51:46.374Z,1.90
2018-07-16T12:53:51.315Z,2.00
2018-07-16T12:55:57.337Z,2.03
2018-07-16T12:58:02.382Z,2.30
2018-07-16T13:00:07.459Z,2.47
2018-07-16T13:02:12.417Z,1.90
2018-07-16T13:04:27.822Z,2.17
2018-07-16T13:06:33.636Z,2.00
2018-07-16T13:08:49.145Z,2.20
2018-07-16T13:11:04.755Z,1.80
2018-07-16T13:13:17.148Z,2.20
2018-07-16T13:15:22.092Z,2.20
2018-07-16T13:17:27.093Z,2.37
2018-07-16T13:19:36.381Z,1.80
2018-07-16T13:21:42.042Z,2.77
2018-07-16T13:23:48.049Z,2.37
2018-07-16T13:25:55.663Z,2.13
2018-07-16T13:28:02.589Z,2.40
2018-07-16T13:30:09.003Z,2.27
2018-07-16T13:32:17.643Z,1.93
2018-07-16T13:34:24.441Z,2.30
2018-07-16T13:36:31.376Z,2.10
2018-07-16T13:38:36.315Z,2.40
2018-07-16T13:40:43.452Z,2.30
2018-07-16T13:42:48.371Z,2.40
2018-07-16T13:44:53.347Z,2.27
2018-07-16T13:47:07.907Z,2.60
2018-07-16T13:49:15.195Z,2.40
2018-07-16T13:51:20.134Z,2.50
2018-07-16T13:53:25.059Z,2.20
2018-07-16T13:55:32.532Z,2.00
2018-07-16T13:57:38.233Z,2.27
2018-07-16T13:59:44.672Z,2.20
2018-07-16T14:01:51.116Z,2.40
2018-07-16T14:03:56.057Z,2.17
2018-07-16T14:06:01.040Z,2.20
2018-07-16T14:08:08.126Z,2.87
2018-07-16T14:10:13.167Z,2.80
2018-07-16T14:12:18.167Z,2.30
2018-07-16T14:14:23.883Z,2.20
2018-07-16T14:16:32.345Z,2.33
2018-07-16T14:18:37.307Z,2.23
2018-07-16T14:20:48.705Z,2.50
2018-07-16T14:22:57.702Z,2.50
2018-07-16T14:25:08.347Z,2.60
2018-07-16T14:27:13.313Z,2.50
2018-07-16T14:29:20.094Z,2.93
2018-07-16T14:31:25.107Z,2.30
2018-07-16T14:33:30.099Z,2.60
2018-07-16T14:35:38.096Z,2.50
2018-07-16T14:37:43.022Z,2.77
2018-07-16T14:39:51.060Z,2.27
2018-07-16T14:41:55.926Z,2.47
2018-07-16T14:44:00.865Z,2.47
2018-07-16T14:46:05.945Z,2.40
2018-07-16T14:48:10.935Z,2.40
2018-07-16T14:50:17.554Z,2.20
2018-07-16T14:52:22.530Z,2.47
2018-07-16T14:54:27.458Z,2.02
2018-07-16T14:56:32.391Z,2.13
2018-07-16T14:58:37.311Z,2.63
2018-07-16T15:00:42.937Z,2.27
2018-07-16T15:02:47.389Z,2.53
2018-07-16T15:04:52.179Z,2.33
2018-07-16T15:06:57.157Z,2.30
2018-07-16T15:09:02.209Z,2.50
2018-07-16T15:11:07.511Z,2.72
2018-07-16T15:13:12.414Z,2.30
2018-07-16T15:15:17.338Z,2.80
2018-07-16T15:17:23.703Z,2.45
2018-07-16T15:19:28.659Z,2.50
2018-07-16T15:21:33.883Z,2.85
2018-07-16T15:23:38.686Z,2.00
2018-07-16T15:25:43.684Z,2.40
2018-07-16T15:27:48.667Z,2.70
2018-07-16T15:29:53.679Z,2.58
2018-07-16T15:31:58.651Z,2.33
2018-07-16T15:34:03.500Z,2.75
2018-07-16T15:36:08.479Z,2.30
2018-07-16T15:38:13.553Z,2.47
2018-07-16T15:40:18.494Z,2.70
2018-07-16T15:42:23.474Z,2.20
2018-07-16T15:44:28.490Z,2.90
2018-07-16T15:46:33.362Z,2.58
2018-07-16T15:48:45.140Z,2.52
2018-07-16T15:50:50.601Z,2.42
2018-07-16T15:52:55.886Z,2.42
2018-07-16T15:55:14.106Z,2.58
2018-07-16T15:57:19.062Z,2.90
2018-07-16T15:59:23.987Z,2.65
2018-07-16T16:01:28.968Z,2.72
2018-07-16T16:03:39.971Z,2.55
2018-07-16T16:05:44.952Z,2.40
2018-07-16T16:07:51.047Z,2.70
2018-07-16T16:09:55.941Z,2.80
2018-07-16T16:12:09.520Z,2.83
2018-07-16T16:14:16.787Z,3.47
2018-07-16T16:16:22.753Z,2.65
2018-07-16T16:18:27.654Z,2.42
2018-07-16T16:20:33.853Z,2.83
2018-07-16T16:22:42.800Z,2.40
2018-07-16T16:24:47.757Z,2.45
2018-07-16T16:26:52.740Z,2.52
2018-07-16T16:28:57.646Z,2.45
2018-07-16T16:31:02.621Z,2.50
2018-07-16T16:33:10.216Z,2.30
2018-07-16T16:35:15.191Z,2.72
2018-07-16T16:37:20.211Z,2.87
2018-07-16T16:39:34.218Z,2.70
2018-07-16T16:41:41.680Z,2.77
2018-07-16T16:43:47.265Z,2.33
2018-07-16T16:45:55.947Z,2.60
2018-07-16T16:48:00.954Z,2.60
2018-07-16T16:50:06.524Z,2.33
2018-07-16T16:52:11.417Z,2.40
2018-07-16T16:54:17.747Z,2.60
2018-07-16T16:56:22.737Z,2.87
2018-07-16T16:58:27.733Z,3.00
2018-07-16T17:00:35.821Z,2.80
2018-07-16T17:02:40.738Z,3.03
2018-07-16T17:04:48.727Z,2.53
2018-07-16T17:06:53.639Z,3.03
2018-07-16T17:08:58.612Z,2.60
2018-07-16T17:11:03.564Z,3.07
2018-07-16T17:13:08.586Z,3.07
2018-07-16T17:15:13.511Z,3.00
2018-07-16T17:17:18.533Z,2.52
2018-07-16T17:19:23.523Z,2.37
2018-07-16T17:21:28.406Z,2.60
2018-07-16T17:23:33.330Z,2.80
2018-07-16T17:25:38.295Z,3.17
2018-07-16T17:27:43.274Z,2.90
2018-07-16T17:29:48.231Z,2.67
2018-07-16T17:31:53.317Z,3.00
2018-07-16T17:33:57.768Z,2.80
2018-07-16T17:36:02.519Z,2.60
2018-07-16T17:38:07.473Z,2.80
2018-07-16T17:40:12.446Z,2.50
2018-07-16T17:42:17.914Z,2.50
2018-07-16T17:44:22.819Z,2.50
2018-07-16T17:46:27.758Z,2.83
2018-07-16T17:48:52.635Z,2.40
2018-07-16T17:50:57.557Z,2.40
2018-07-16T17:53:02.492Z,2.97
2018-07-16T17:55:07.516Z,2.43
2018-07-16T17:57:12.557Z,2.60
2018-07-16T17:59:17.487Z,2.60
2018-07-16T18:01:22.620Z,2.87
2018-07-16T18:03:27.519Z,2.83
2018-07-16T18:05:32.475Z,2.83
2018-07-16T18:07:37.441Z,3.03
2018-07-16T18:09:42.419Z,2.90
2018-07-16T18:11:47.370Z,3.00
2018-07-16T18:13:52.362Z,3.17
2018-07-16T18:15:57.438Z,2.70
2018-07-16T18:18:02.433Z,2.90
2018-07-16T18:20:07.533Z,2.90
2018-07-16T18:22:12.480Z,2.73
2018-07-16T18:24:17.374Z,2.50
2018-07-16T18:26:22.364Z,2.50
2018-07-16T18:28:27.351Z,2.73
2018-07-16T18:30:32.475Z,2.73
2018-07-16T18:32:37.663Z,2.50
2018-07-16T18:34:42.534Z,2.67
2018-07-16T18:36:47.509Z,2.60
2018-07-16T18:38:52.443Z,2.50
2018-07-16T18:41:00.179Z,2.87
2018-07-16T18:43:05.129Z,2.10
2018-07-16T18:45:10.075Z,2.50
2018-07-16T18:47:15.124Z,2.57
2018-07-16T18:49:20.067Z,3.20
2018-07-16T18:51:25.042Z,2.80
2018-07-16T18:53:29.955Z,2.37
2018-07-16T18:55:35.035Z,2.70
2018-07-16T18:57:40.000Z,3.00
2018-07-16T18:59:44.983Z,2.97
2018-07-16T19:01:50.339Z,2.70
2018-07-16T19:03:55.244Z,2.50
2018-07-16T19:06:00.230Z,2.77
2018-07-16T19:08:05.354Z,2.83
2018-07-16T19:10:10.376Z,2.83
2018-07-16T19:12:15.302Z,2.70
2018-07-16T19:14:20.311Z,2.07
2018-07-16T19:16:25.224Z,2.40
2018-07-16T19:18:30.274Z,2.80
2018-07-16T19:20:35.247Z,2.30
2018-07-16T19:22:40.161Z,2.57
2018-07-16T19:24:45.074Z,3.07
2018-07-16T19:26:50.100Z,2.77
2018-07-16T19:28:55.027Z,2.83
2018-07-16T19:31:00.823Z,2.70
2018-07-16T19:33:05.870Z,2.60
2018-07-16T19:35:10.858Z,2.97
2018-07-16T19:37:15.866Z,2.97
2018-07-16T19:39:22.616Z,3.30
2018-07-16T19:41:45.572Z,2.40
2018-07-16T19:43:52.495Z,2.77
2018-07-16T19:46:04.693Z,2.80
2018-07-16T19:48:10.325Z,3.00
2018-07-16T19:50:15.319Z,2.90
2018-07-16T19:52:20.239Z,3.23
2018-07-16T19:54:25.190Z,3.13
2018-07-16T19:56:30.144Z,3.07
2018-07-16T19:58:40.204Z,3.50
2018-07-16T20:00:53.920Z,3.07
2018-07-16T20:02:58.911Z,2.97
2018-07-16T20:05:03.948Z,3.00
2018-07-16T20:07:14.126Z,2.93
2018-07-16T20:09:19.153Z,3.00
2018-07-16T20:11:24.121Z,2.87
2018-07-16T20:13:29.655Z,3.50
2018-07-16T20:15:36.571Z,3.30
2018-07-16T20:17:42.101Z,3.20
2018-07-16T20:19:54.978Z,3.33
2018-07-16T20:21:59.958Z,3.20
2018-07-16T20:24:17.395Z,3.63
2018-07-16T20:26:29.230Z,3.80
2018-07-16T20:28:34.197Z,3.10
2018-07-16T20:30:39.142Z,3.40
2018-07-16T20:32:45.034Z,3.23
2018-07-16T20:34:50.173Z,3.40
2018-07-16T20:36:55.134Z,3.43
2018-07-16T20:39:00.123Z,3.60
2018-07-16T20:41:21.964Z,3.20
2018-07-16T20:43:29.782Z,3.50
2018-07-16T20:45:36.723Z,3.30
2018-07-16T20:47:43.582Z,3.73
2018-07-16T20:49:50.150Z,3.40
2018-07-16T20:51:57.959Z,3.70
2018-07-16T20:54:06.135Z,3.20
2018-07-16T20:56:11.836Z,3.50
2018-07-16T20:58:17.758Z,3.90
2018-07-16T21:00:24.116Z,2.90
2018-07-16T21:02:29.115Z,3.03
2018-07-16T21:04:34.296Z,3.57
2018-07-16T21:06:39.783Z,3.67
2018-07-16T21:08:45.194Z,3.17
2018-07-16T21:10:52.319Z,3.63
2018-07-16T21:12:59.351Z,3.37
2018-07-16T21:15:07.075Z,3.20
2018-07-16T21:17:14.585Z,2.83
2018-07-16T21:19:23.020Z,3.20
2018-07-16T21:21:31.378Z,3.23
2018-07-16T21:23:36.365Z,3.53
2018-07-16T21:25:42.131Z,3.40
2018-07-16T21:27:52.551Z,3.87
2018-07-16T21:30:01.168Z,3.63
2018-07-16T21:32:07.506Z,3.90
2018-07-16T21:34:13.858Z,3.37
2018-07-16T21:36:19.975Z,3.40
2018-07-16T21:38:27.959Z,3.57
2018-07-16T21:40:35.594Z,3.30
2018-07-16T21:42:40.779Z,3.30
2018-07-16T21:44:46.467Z,3.93
2018-07-16T21:46:52.188Z,3.40
2018-07-16T21:48:57.157Z,3.43
2018-07-16T21:51:02.995Z,3.73
2018-07-16T21:53:08.106Z,3.63
2018-07-16T21:55:14.147Z,3.47
2018-07-16T21:57:19.136Z,4.07
2018-07-16T21:59:26.878Z,4.00
2018-07-16T22:01:35.711Z,3.70
2018-07-16T22:03:41.133Z,3.67
2018-07-16T22:05:46.858Z,3.97
2018-07-16T22:07:51.846Z,4.20
2018-07-16T22:09:56.828Z,4.50
2018-07-16T22:12:01.731Z,3.70
2018-07-16T22:14:06.754Z,3.83
2018-07-16T22:16:11.861Z,3.90
2018-07-16T22:18:16.828Z,4.23
2018-07-16T22:20:22.559Z,4.10
2018-07-16T22:22:27.969Z,3.80
2018-07-16T22:24:38.007Z,4.27
2018-07-16T22:26:45.379Z,4.20
2018-07-16T22:28:51.929Z,3.97
2018-07-16T22:30:56.991Z,4.30
2018-07-16T22:33:03.759Z,3.97
2018-07-16T22:35:09.222Z,4.03
2018-07-16T22:37:14.150Z,3.90
2018-07-16T22:39:20.130Z,3.87
2018-07-16T22:41:25.200Z,3.90
2018-07-16T22:43:30.006Z,4.03
2018-07-16T22:45:37.591Z,4.30
2018-07-16T22:47:43.415Z,4.50
2018-07-16T22:49:49.714Z,4.17
2018-07-16T22:51:55.698Z,4.30
2018-07-16T22:54:01.369Z,4.40
2018-07-16T22:56:07.451Z,4.00
2018-07-16T22:58:13.029Z,4.23
2018-07-16T23:00:18.951Z,4.50
2018-07-16T23:02:23.566Z,5.23
2018-07-16T23:04:28.546Z,4.10
2018-07-16T23:06:48.757Z,4.70
2018-07-16T23:08:56.725Z,4.10
2018-07-16T23:11:02.455Z,4.43
2018-07-16T23:13:09.578Z,3.97
2018-07-16T23:15:15.285Z,4.00
2018-07-16T23:17:22.185Z,3.90
2018-07-16T23:19:28.714Z,4.27
2018-07-16T23:21:33.982Z,3.70
2018-07-16T23:23:38.854Z,4.20
2018-07-16T23:25:45.353Z,4.30
2018-07-16T23:27:50.949Z,4.37
2018-07-16T23:29:57.202Z,4.17
2018-07-16T23:32:03.307Z,4.53
2018-07-16T23:34:10.601Z,4.40
2018-07-16T23:36:16.952Z,3.70
2018-07-16T23:38:23.386Z,4.50
2018-07-16T23:40:30.046Z,3.90
2018-07-16T23:42:37.906Z,3.80
2018-07-16T23:44:43.667Z,3.70
2018-07-16T23:46:49.679Z,4.33
2018-07-16T23:49:12.289Z,3.73
2018-07-16T23:51:19.223Z,4.07
2018-07-16T23:53:24.142Z,4.17
2018-07-16T23:55:29.447Z,4.30
2018-07-16T23:57:34.549Z,4.90
2018-07-16T23:59:39.488Z,4.70
